Fishkill, New York
Current Conditions -  °F | °C
As of 2:53 PM on Wednesday 28 Jan 2015 (Local Time) from KPOU Reporting Station
Clear Clear  
Wind Chill: 20°   Ceiling: Unl
Heat Index: 29°   Visibility: 10mi
Dew Point:   Wind: 10mph
Humidity: 38%   Direction: 360°N
Pressure: 30.09"   Gusts: NA
Location:  41.54°N, 73.9°W
Report Text: KPOU 281953Z 36009KT 10SM CLR M02/M14 A3009 RMK AO2 SLP188 T10171144
Loading
Personal Weather Stations






























Interactive Weather Map New forecast layout! Learn more

10-Day Weather Forecast

Advertisements
Track Severe Weather on mobile